sensor_id;sensor_type;location;lat;lon;timestamp;temperature;humidity
73955;DHT22;62306;52.516;13.290;2022-12-07T01:35:44;3.30;91.40
73955;DHT22;62306;52.516;13.290;2022-12-07T01:38:11;3.30;91.30
73955;DHT22;62306;52.516;13.290;2022-12-07T01:40:38;3.30;91.50
73955;DHT22;62306;52.516;13.290;2022-12-07T01:43:09;3.30;91.20
73955;DHT22;62306;52.516;13.290;2022-12-07T01:45:41;3.30;91.20
73955;DHT22;62306;52.516;13.290;2022-12-07T02:29:15;3.00;91.70
73955;DHT22;62306;52.516;13.290;2022-12-07T02:31:49;3.00;92.00
73955;DHT22;62306;52.516;13.290;2022-12-07T02:34:25;3.00;92.00
73955;DHT22;62306;52.516;13.290;2022-12-07T02:36:59;3.00;92.20
73955;DHT22;62306;52.516;13.290;2022-12-07T02:39:33;2.90;92.30
73955;DHT22;62306;52.516;13.290;2022-12-07T03:31:21;3.20;92.80
73955;DHT22;62306;52.516;13.290;2022-12-07T03:33:52;3.20;92.90
73955;DHT22;62306;52.516;13.290;2022-12-07T03:36:23;3.20;93.10
73955;DHT22;62306;52.516;13.290;2022-12-07T03:38:56;3.30;93.20
73955;DHT22;62306;52.516;13.290;2022-12-07T03:41:26;3.20;93.30
73955;DHT22;62306;52.516;13.290;2022-12-07T03:43:56;3.30;93.30
73955;DHT22;62306;52.516;13.290;2022-12-07T03:46:32;4.40;93.50
73955;DHT22;62306;52.516;13.290;2022-12-07T03:49:07;3.30;93.20
73955;DHT22;62306;52.516;13.290;2022-12-07T03:51:40;3.30;93.30
73955;DHT22;62306;52.516;13.290;2022-12-07T03:54:13;3.30;93.30
73955;DHT22;62306;52.516;13.290;2022-12-07T03:56:43;3.40;93.60
73955;DHT22;62306;52.516;13.290;2022-12-07T03:59:11;3.40;93.30
73955;DHT22;62306;52.516;13.290;2022-12-07T04:01:42;3.40;93.30
73955;DHT22;62306;52.516;13.290;2022-12-07T04:04:09;3.40;93.40
73955;DHT22;62306;52.516;13.290;2022-12-07T04:06:36;3.40;93.60
73955;DHT22;62306;52.516;13.290;2022-12-07T04:09:03;3.40;93.60
73955;DHT22;62306;52.516;13.290;2022-12-07T04:11:30;3.40;93.80
73955;DHT22;62306;52.516;13.290;2022-12-07T04:13:57;3.40;93.50
73955;DHT22;62306;52.516;13.290;2022-12-07T04:16:43;3.40;93.70
73955;DHT22;62306;52.516;13.290;2022-12-07T04:19:10;3.40;94.10
73955;DHT22;62306;52.516;13.290;2022-12-07T04:21:37;3.40;93.90
73955;DHT22;62306;52.516;13.290;2022-12-07T04:24:04;3.40;94.00
73955;DHT22;62306;52.516;13.290;2022-12-07T04:26:31;3.40;93.90
73955;DHT22;62306;52.516;13.290;2022-12-07T04:28:58;3.40;93.80
73955;DHT22;62306;52.516;13.290;2022-12-07T04:31:25;3.40;94.00
73955;DHT22;62306;52.516;13.290;2022-12-07T04:33:53;3.40;94.00
73955;DHT22;62306;52.516;13.290;2022-12-07T04:36:20;3.40;94.10
73955;DHT22;62306;52.516;13.290;2022-12-07T04:38:47;3.40;94.20
73955;DHT22;62306;52.516;13.290;2022-12-07T04:41:14;3.40;94.30
73955;DHT22;62306;52.516;13.290;2022-12-07T04:43:41;3.40;94.30
73955;DHT22;62306;52.516;13.290;2022-12-07T04:46:08;3.50;94.30
73955;DHT22;62306;52.516;13.290;2022-12-07T04:48:39;3.50;94.30
73955;DHT22;62306;52.516;13.290;2022-12-07T04:51:11;3.50;94.30
73955;DHT22;62306;52.516;13.290;2022-12-07T04:53:37;3.50;94.30
73955;DHT22;62306;52.516;13.290;2022-12-07T04:56:04;3.60;94.50
73955;DHT22;62306;52.516;13.290;2022-12-07T04:58:31;3.60;94.70
73955;DHT22;62306;52.516;13.290;2022-12-07T05:00:58;3.60;94.70
73955;DHT22;62306;52.516;13.290;2022-12-07T05:03:27;3.60;94.60
73955;DHT22;62306;52.516;13.290;2022-12-07T05:05:54;3.60;94.60
73955;DHT22;62306;52.516;13.290;2022-12-07T05:08:22;3.70;94.40
73955;DHT22;62306;52.516;13.290;2022-12-07T05:10:49;3.70;94.70
73955;DHT22;62306;52.516;13.290;2022-12-07T05:13:16;3.70;94.50
73955;DHT22;62306;52.516;13.290;2022-12-07T05:15:43;3.70;94.40
73955;DHT22;62306;52.516;13.290;2022-12-07T05:18:10;3.60;94.60
73955;DHT22;62306;52.516;13.290;2022-12-07T05:20:38;3.70;94.80
73955;DHT22;62306;52.516;13.290;2022-12-07T05:23:05;3.70;94.80
73955;DHT22;62306;52.516;13.290;2022-12-07T05:25:33;3.70;94.90
73955;DHT22;62306;52.516;13.290;2022-12-07T05:28:00;3.70;94.90
73955;DHT22;62306;52.516;13.290;2022-12-07T05:30:27;3.70;94.80
73955;DHT22;62306;52.516;13.290;2022-12-07T05:32:55;3.70;94.80
73955;DHT22;62306;52.516;13.290;2022-12-07T05:35:21;3.70;94.80
73955;DHT22;62306;52.516;13.290;2022-12-07T05:37:48;3.80;94.90
73955;DHT22;62306;52.516;13.290;2022-12-07T05:40:16;3.80;94.80
73955;DHT22;62306;52.516;13.290;2022-12-07T05:42:45;3.80;94.80
73955;DHT22;62306;52.516;13.290;2022-12-07T05:45:12;3.80;95.00
73955;DHT22;62306;52.516;13.290;2022-12-07T05:47:39;3.80;95.10
73955;DHT22;62306;52.516;13.290;2022-12-07T05:50:07;3.80;95.30
73955;DHT22;62306;52.516;13.290;2022-12-07T05:52:34;3.80;95.00
73955;DHT22;62306;52.516;13.290;2022-12-07T05:55:01;3.90;95.00
73955;DHT22;62306;52.516;13.290;2022-12-07T05:57:28;3.90;95.10
73955;DHT22;62306;52.516;13.290;2022-12-07T05:59:56;3.90;95.20
73955;DHT22;62306;52.516;13.290;2022-12-07T06:02:22;3.90;95.20
73955;DHT22;62306;52.516;13.290;2022-12-07T06:04:49;4.00;95.20
73955;DHT22;62306;52.516;13.290;2022-12-07T06:07:16;4.00;95.00
73955;DHT22;62306;52.516;13.290;2022-12-07T06:09:43;4.00;94.90
73955;DHT22;62306;52.516;13.290;2022-12-07T06:12:11;4.00;94.90
73955;DHT22;62306;52.516;13.290;2022-12-07T06:14:57;4.00;95.10
73955;DHT22;62306;52.516;13.290;2022-12-07T06:17:24;4.00;95.10
73955;DHT22;62306;52.516;13.290;2022-12-07T06:19:51;4.00;95.20
73955;DHT22;62306;52.516;13.290;2022-12-07T06:22:18;4.10;95.20
73955;DHT22;62306;52.516;13.290;2022-12-07T06:24:45;4.10;95.00
73955;DHT22;62306;52.516;13.290;2022-12-07T06:27:12;4.00;95.20
73955;DHT22;62306;52.516;13.290;2022-12-07T06:29:39;4.00;95.40
73955;DHT22;62306;52.516;13.290;2022-12-07T06:32:07;4.00;95.30
73955;DHT22;62306;52.516;13.290;2022-12-07T06:34:34;4.00;95.30
73955;DHT22;62306;52.516;13.290;2022-12-07T06:37:01;4.00;95.40
73955;DHT22;62306;52.516;13.290;2022-12-07T06:39:29;3.90;95.60
73955;DHT22;62306;52.516;13.290;2022-12-07T06:41:56;3.90;95.70
73955;DHT22;62306;52.516;13.290;2022-12-07T06:44:23;3.90;95.80
73955;DHT22;62306;52.516;13.290;2022-12-07T06:46:51;4.00;95.90
73955;DHT22;62306;52.516;13.290;2022-12-07T06:49:19;4.00;95.70
73955;DHT22;62306;52.516;13.290;2022-12-07T06:51:46;4.00;95.70
73955;DHT22;62306;52.516;13.290;2022-12-07T06:54:15;4.00;95.70
73955;DHT22;62306;52.516;13.290;2022-12-07T06:56:42;4.00;95.70
73955;DHT22;62306;52.516;13.290;2022-12-07T06:59:09;4.10;95.80
73955;DHT22;62306;52.516;13.290;2022-12-07T07:01:36;4.10;95.60
73955;DHT22;62306;52.516;13.290;2022-12-07T07:04:03;4.20;95.50
73955;DHT22;62306;52.516;13.290;2022-12-07T07:06:32;4.20;95.60
73955;DHT22;62306;52.516;13.290;2022-12-07T07:08:59;4.20;95.60
73955;DHT22;62306;52.516;13.290;2022-12-07T07:11:26;4.20;95.50
73955;DHT22;62306;52.516;13.290;2022-12-07T07:13:52;4.30;95.40
73955;DHT22;62306;52.516;13.290;2022-12-07T07:16:22;4.30;95.30
73955;DHT22;62306;52.516;13.290;2022-12-07T07:18:49;4.30;95.40
73955;DHT22;62306;52.516;13.290;2022-12-07T07:21:16;4.30;95.40
73955;DHT22;62306;52.516;13.290;2022-12-07T07:23:44;4.30;95.40
73955;DHT22;62306;52.516;13.290;2022-12-07T07:26:11;4.30;95.40
73955;DHT22;62306;52.516;13.290;2022-12-07T07:28:39;4.30;95.70
73955;DHT22;62306;52.516;13.290;2022-12-07T07:31:05;4.30;95.30
73955;DHT22;62306;52.516;13.290;2022-12-07T07:33:32;4.30;95.00
73955;DHT22;62306;52.516;13.290;2022-12-07T07:35:59;4.20;94.90
73955;DHT22;62306;52.516;13.290;2022-12-07T07:38:26;4.20;94.80
73955;DHT22;62306;52.516;13.290;2022-12-07T07:40:55;4.10;95.10
73955;DHT22;62306;52.516;13.290;2022-12-07T07:43:21;4.00;95.10
73955;DHT22;62306;52.516;13.290;2022-12-07T07:45:48;4.00;95.10
73955;DHT22;62306;52.516;13.290;2022-12-07T07:48:16;4.00;95.10
73955;DHT22;62306;52.516;13.290;2022-12-07T07:50:43;4.10;95.00
73955;DHT22;62306;52.516;13.290;2022-12-07T07:53:10;4.20;94.70
73955;DHT22;62306;52.516;13.290;2022-12-07T07:55:36;4.20;94.30
73955;DHT22;62306;52.516;13.290;2022-12-07T07:58:05;4.30;94.20
73955;DHT22;62306;52.516;13.290;2022-12-07T08:00:32;4.30;94.10
73955;DHT22;62306;52.516;13.290;2022-12-07T08:02:59;4.30;94.00
73955;DHT22;62306;52.516;13.290;2022-12-07T08:05:25;4.40;93.50
73955;DHT22;62306;52.516;13.290;2022-12-07T08:07:52;4.50;93.40
73955;DHT22;62306;52.516;13.290;2022-12-07T08:10:19;4.50;93.40
73955;DHT22;62306;52.516;13.290;2022-12-07T08:12:46;4.50;93.40
73955;DHT22;62306;52.516;13.290;2022-12-07T08:15:48;4.50;93.60
73955;DHT22;62306;52.516;13.290;2022-12-07T08:18:15;4.50;93.10
73955;DHT22;62306;52.516;13.290;2022-12-07T08:20:42;4.60;92.90
73955;DHT22;62306;52.516;13.290;2022-12-07T08:23:10;4.60;92.90
73955;DHT22;62306;52.516;13.290;2022-12-07T08:25:37;4.60;92.60
73955;DHT22;62306;52.516;13.290;2022-12-07T08:28:05;4.60;92.20
73955;DHT22;62306;52.516;13.290;2022-12-07T08:30:32;4.60;92.30
73955;DHT22;62306;52.516;13.290;2022-12-07T08:33:00;4.60;91.80
73955;DHT22;62306;52.516;13.290;2022-12-07T08:35:27;4.60;91.80
73955;DHT22;62306;52.516;13.290;2022-12-07T08:37:54;4.60;91.50
73955;DHT22;62306;52.516;13.290;2022-12-07T08:40:23;4.60;90.90
73955;DHT22;62306;52.516;13.290;2022-12-07T08:42:50;4.60;90.60
73955;DHT22;62306;52.516;13.290;2022-12-07T08:45:18;4.60;89.20
73955;DHT22;62306;52.516;13.290;2022-12-07T08:47:50;4.60;89.10
73955;DHT22;62306;52.516;13.290;2022-12-07T08:50:20;4.70;88.30
73955;DHT22;62306;52.516;13.290;2022-12-07T08:52:49;4.80;87.90
73955;DHT22;62306;52.516;13.290;2022-12-07T08:55:18;4.70;87.80
73955;DHT22;62306;52.516;13.290;2022-12-07T08:57:45;4.80;87.20
73955;DHT22;62306;52.516;13.290;2022-12-07T09:00:13;4.70;86.50
73955;DHT22;62306;52.516;13.290;2022-12-07T09:02:43;4.80;86.10
73955;DHT22;62306;52.516;13.290;2022-12-07T09:05:10;4.80;85.80
73955;DHT22;62306;52.516;13.290;2022-12-07T09:07:38;4.70;83.50
73955;DHT22;62306;52.516;13.290;2022-12-07T09:10:06;4.70;83.90
73955;DHT22;62306;52.516;13.290;2022-12-07T09:12:33;4.70;82.00
73955;DHT22;62306;52.516;13.290;2022-12-07T09:15:00;4.70;82.10
73955;DHT22;62306;52.516;13.290;2022-12-07T09:17:32;4.60;82.60
73955;DHT22;62306;52.516;13.290;2022-12-07T09:20:01;4.60;83.80
73955;DHT22;62306;52.516;13.290;2022-12-07T09:22:29;4.60;83.10
73955;DHT22;62306;52.516;13.290;2022-12-07T09:24:57;4.60;84.50
73955;DHT22;62306;52.516;13.290;2022-12-07T09:27:24;4.60;85.00
73955;DHT22;62306;52.516;13.290;2022-12-07T09:29:51;4.70;84.80
73955;DHT22;62306;52.516;13.290;2022-12-07T09:32:18;4.70;82.80
73955;DHT22;62306;52.516;13.290;2022-12-07T09:34:45;4.70;83.90
73955;DHT22;62306;52.516;13.290;2022-12-07T09:37:13;4.60;84.50
73955;DHT22;62306;52.516;13.290;2022-12-07T09:39:40;4.60;84.80
73955;DHT22;62306;52.516;13.290;2022-12-07T09:42:09;4.50;83.30
73955;DHT22;62306;52.516;13.290;2022-12-07T09:44:42;4.60;82.80
73955;DHT22;62306;52.516;13.290;2022-12-07T09:47:10;4.60;83.00
73955;DHT22;62306;52.516;13.290;2022-12-07T09:49:37;4.60;83.10
73955;DHT22;62306;52.516;13.290;2022-12-07T09:52:18;4.60;83.70
73955;DHT22;62306;52.516;13.290;2022-12-07T09:54:48;4.60;83.90
73955;DHT22;62306;52.516;13.290;2022-12-07T09:57:17;4.60;84.70
73955;DHT22;62306;52.516;13.290;2022-12-07T09:59:44;4.60;84.80
73955;DHT22;62306;52.516;13.290;2022-12-07T10:02:25;4.60;84.90
73955;DHT22;62306;52.516;13.290;2022-12-07T10:04:55;4.60;85.30
73955;DHT22;62306;52.516;13.290;2022-12-07T10:07:24;4.60;85.30
73955;DHT22;62306;52.516;13.290;2022-12-07T10:09:51;4.60;85.30
73955;DHT22;62306;52.516;13.290;2022-12-07T10:12:19;4.60;85.10
73955;DHT22;62306;52.516;13.290;2022-12-07T10:14:54;4.60;85.00
73955;DHT22;62306;52.516;13.290;2022-12-07T10:17:31;4.50;86.00
73955;DHT22;62306;52.516;13.290;2022-12-07T10:20:17;4.50;87.00
73955;DHT22;62306;52.516;13.290;2022-12-07T10:22:55;4.50;86.40
73955;DHT22;62306;52.516;13.290;2022-12-07T10:25:23;4.60;85.90
73955;DHT22;62306;52.516;13.290;2022-12-07T10:28:08;4.70;84.80
73955;DHT22;62306;52.516;13.290;2022-12-07T10:30:51;4.60;84.00
73955;DHT22;62306;52.516;13.290;2022-12-07T10:33:30;4.60;83.70
73955;DHT22;62306;52.516;13.290;2022-12-07T10:35:58;4.60;84.90
73955;DHT22;62306;52.516;13.290;2022-12-07T10:38:30;4.60;84.40
73955;DHT22;62306;52.516;13.290;2022-12-07T10:41:04;4.70;84.70
73955;DHT22;62306;52.516;13.290;2022-12-07T10:43:33;4.00;84.60
73955;DHT22;62306;52.516;13.290;2022-12-07T10:46:18;4.70;85.10
73955;DHT22;62306;52.516;13.290;2022-12-07T10:48:54;4.70;85.20
73955;DHT22;62306;52.516;13.290;2022-12-07T10:51:29;4.70;84.90
73955;DHT22;62306;52.516;13.290;2022-12-07T10:54:04;4.70;86.30
73955;DHT22;62306;52.516;13.290;2022-12-07T10:57:04;4.80;85.60
73955;DHT22;62306;52.516;13.290;2022-12-07T10:59:47;4.80;86.30
73955;DHT22;62306;52.516;13.290;2022-12-07T11:02:37;4.90;85.50
73955;DHT22;62306;52.516;13.290;2022-12-07T11:05:16;5.00;85.80
73955;DHT22;62306;52.516;13.290;2022-12-07T11:07:51;5.10;85.50
73955;DHT22;62306;52.516;13.290;2022-12-07T11:10:26;5.00;84.80
73955;DHT22;62306;52.516;13.290;2022-12-07T11:13:07;5.00;85.40
73955;DHT22;62306;52.516;13.290;2022-12-07T11:15:45;5.00;85.40
73955;DHT22;62306;52.516;13.290;2022-12-07T11:18:17;5.00;86.20
73955;DHT22;62306;52.516;13.290;2022-12-07T11:20:54;5.10;85.90
73955;DHT22;62306;52.516;13.290;2022-12-07T11:23:27;5.00;86.20
73955;DHT22;62306;52.516;13.290;2022-12-07T11:26:02;5.00;86.40
73955;DHT22;62306;52.516;13.290;2022-12-07T11:28:41;5.10;86.00
73955;DHT22;62306;52.516;13.290;2022-12-07T11:31:20;5.10;85.90
73955;DHT22;62306;52.516;13.290;2022-12-07T11:33:54;5.10;85.20
73955;DHT22;62306;52.516;13.290;2022-12-07T11:36:33;5.10;85.00
73955;DHT22;62306;52.516;13.290;2022-12-07T11:39:04;5.10;85.00
73955;DHT22;62306;52.516;13.290;2022-12-07T11:41:40;5.00;85.20
73955;DHT22;62306;52.516;13.290;2022-12-07T11:44:18;5.00;86.00
73955;DHT22;62306;52.516;13.290;2022-12-07T11:46:58;5.20;86.10
73955;DHT22;62306;52.516;13.290;2022-12-07T11:49:37;5.20;84.90
73955;DHT22;62306;52.516;13.290;2022-12-07T11:52:14;5.20;85.60
73955;DHT22;62306;52.516;13.290;2022-12-07T11:54:45;5.10;85.90
73955;DHT22;62306;52.516;13.290;2022-12-07T11:57:19;5.30;85.60
73955;DHT22;62306;52.516;13.290;2022-12-07T11:59:50;5.30;85.60
73955;DHT22;62306;52.516;13.290;2022-12-07T12:02:23;5.30;85.80
73955;DHT22;62306;52.516;13.290;2022-12-07T12:04:54;5.30;84.70
73955;DHT22;62306;52.516;13.290;2022-12-07T12:07:26;5.30;85.00
73955;DHT22;62306;52.516;13.290;2022-12-07T15:49:59;4.20;90.70
73955;DHT22;62306;52.516;13.290;2022-12-07T15:52:26;4.20;90.90
73955;DHT22;62306;52.516;13.290;2022-12-07T15:54:53;4.20;91.00
73955;DHT22;62306;52.516;13.290;2022-12-07T15:57:20;4.30;90.80
73955;DHT22;62306;52.516;13.290;2022-12-07T15:59:47;4.30;90.60
73955;DHT22;62306;52.516;13.290;2022-12-07T16:02:14;4.30;90.50
73955;DHT22;62306;52.516;13.290;2022-12-07T16:04:41;4.30;90.30
73955;DHT22;62306;52.516;13.290;2022-12-07T16:07:09;4.20;90.40
73955;DHT22;62306;52.516;13.290;2022-12-07T16:09:37;4.20;90.60
73955;DHT22;62306;52.516;13.290;2022-12-07T16:12:04;4.10;90.70
73955;DHT22;62306;52.516;13.290;2022-12-07T16:14:31;4.00;90.70
73955;DHT22;62306;52.516;13.290;2022-12-07T16:16:59;3.90;90.90
73955;DHT22;62306;52.516;13.290;2022-12-07T16:19:26;3.80;91.10
73955;DHT22;62306;52.516;13.290;2022-12-07T16:21:53;3.80;90.90
73955;DHT22;62306;52.516;13.290;2022-12-07T16:24:21;3.80;91.00
73955;DHT22;62306;52.516;13.290;2022-12-07T16:26:48;3.70;91.00
73955;DHT22;62306;52.516;13.290;2022-12-07T16:29:16;3.70;91.20
73955;DHT22;62306;52.516;13.290;2022-12-07T16:31:43;3.70;91.20
73955;DHT22;62306;52.516;13.290;2022-12-07T16:34:10;3.70;91.30
73955;DHT22;62306;52.516;13.290;2022-12-07T16:36:37;3.60;91.50
73955;DHT22;62306;52.516;13.290;2022-12-07T16:39:05;3.60;91.50
73955;DHT22;62306;52.516;13.290;2022-12-07T16:41:33;3.60;91.60
73955;DHT22;62306;52.516;13.290;2022-12-07T16:44:02;3.60;91.70
73955;DHT22;62306;52.516;13.290;2022-12-07T16:46:31;3.50;91.70
73955;DHT22;62306;52.516;13.290;2022-12-07T16:48:58;3.50;91.70
73955;DHT22;62306;52.516;13.290;2022-12-07T16:51:25;3.50;91.70
73955;DHT22;62306;52.516;13.290;2022-12-07T16:53:53;3.40;91.70
73955;DHT22;62306;52.516;13.290;2022-12-07T16:56:20;3.40;91.70
73955;DHT22;62306;52.516;13.290;2022-12-07T16:58:48;3.40;91.60
73955;DHT22;62306;52.516;13.290;2022-12-07T17:01:16;3.40;91.60
73955;DHT22;62306;52.516;13.290;2022-12-07T17:03:43;3.40;91.50
73955;DHT22;62306;52.516;13.290;2022-12-07T17:06:14;3.30;91.60
73955;DHT22;62306;52.516;13.290;2022-12-07T17:08:41;3.30;91.60
73955;DHT22;62306;52.516;13.290;2022-12-07T17:11:13;3.30;91.50
73955;DHT22;62306;52.516;13.290;2022-12-07T17:13:40;3.20;91.50
73955;DHT22;62306;52.516;13.290;2022-12-07T17:16:27;3.20;91.40
73955;DHT22;62306;52.516;13.290;2022-12-07T17:18:54;3.20;91.40
73955;DHT22;62306;52.516;13.290;2022-12-07T17:21:21;3.20;91.40
73955;DHT22;62306;52.516;13.290;2022-12-07T17:23:48;3.20;91.20
73955;DHT22;62306;52.516;13.290;2022-12-07T17:26:17;3.20;91.10
73955;DHT22;62306;52.516;13.290;2022-12-07T17:28:44;3.20;91.20
73955;DHT22;62306;52.516;13.290;2022-12-07T17:31:13;3.20;91.30
73955;DHT22;62306;52.516;13.290;2022-12-07T17:33:41;3.10;91.40
73955;DHT22;62306;52.516;13.290;2022-12-07T17:36:12;3.10;91.50
73955;DHT22;62306;52.516;13.290;2022-12-07T17:38:40;3.10;91.40
73955;DHT22;62306;52.516;13.290;2022-12-07T17:41:11;3.10;91.50
73955;DHT22;62306;52.516;13.290;2022-12-07T17:43:59;3.00;91.60
73955;DHT22;62306;52.516;13.290;2022-12-07T17:46:26;3.10;91.60
73955;DHT22;62306;52.516;13.290;2022-12-07T17:48:55;3.00;91.70
73955;DHT22;62306;52.516;13.290;2022-12-07T17:51:22;3.00;91.70
73955;DHT22;62306;52.516;13.290;2022-12-07T17:54:06;3.00;91.70
73955;DHT22;62306;52.516;13.290;2022-12-07T17:56:33;3.00;91.80
73955;DHT22;62306;52.516;13.290;2022-12-07T17:59:00;3.00;91.80
73955;DHT22;62306;52.516;13.290;2022-12-07T18:01:27;2.90;91.70
73955;DHT22;62306;52.516;13.290;2022-12-07T18:03:55;2.90;91.80
73955;DHT22;62306;52.516;13.290;2022-12-07T18:06:23;2.90;91.90
73955;DHT22;62306;52.516;13.290;2022-12-07T18:08:50;2.80;92.00
73955;DHT22;62306;52.516;13.290;2022-12-07T18:11:17;2.80;92.10
73955;DHT22;62306;52.516;13.290;2022-12-07T18:13:44;2.80;92.20
73955;DHT22;62306;52.516;13.290;2022-12-07T18:16:13;2.70;92.20
73955;DHT22;62306;52.516;13.290;2022-12-07T18:18:42;2.60;92.50
73955;DHT22;62306;52.516;13.290;2022-12-07T18:21:12;2.70;92.60
73955;DHT22;62306;52.516;13.290;2022-12-07T18:23:42;2.60;92.60
73955;DHT22;62306;52.516;13.290;2022-12-07T18:26:09;2.60;92.50
73955;DHT22;62306;52.516;13.290;2022-12-07T18:28:38;2.60;92.70
73955;DHT22;62306;52.516;13.290;2022-12-07T18:31:05;2.60;92.60
73955;DHT22;62306;52.516;13.290;2022-12-07T18:33:32;2.60;92.60
73955;DHT22;62306;52.516;13.290;2022-12-07T18:36:00;2.60;92.60
73955;DHT22;62306;52.516;13.290;2022-12-07T18:38:28;2.60;92.50
73955;DHT22;62306;52.516;13.290;2022-12-07T18:40:56;2.50;92.70
73955;DHT22;62306;52.516;13.290;2022-12-07T18:43:23;2.50;92.70
73955;DHT22;62306;52.516;13.290;2022-12-07T18:45:50;2.50;92.80
73955;DHT22;62306;52.516;13.290;2022-12-07T18:48:19;2.50;92.70
73955;DHT22;62306;52.516;13.290;2022-12-07T18:50:50;2.50;92.70
73955;DHT22;62306;52.516;13.290;2022-12-07T18:53:24;2.40;92.60
73955;DHT22;62306;52.516;13.290;2022-12-07T18:56:00;2.50;92.70
73955;DHT22;62306;52.516;13.290;2022-12-07T18:58:26;2.40;92.60
73955;DHT22;62306;52.516;13.290;2022-12-07T19:00:54;2.40;92.80
73955;DHT22;62306;52.516;13.290;2022-12-07T19:03:21;2.40;92.80
73955;DHT22;62306;52.516;13.290;2022-12-07T19:05:48;2.30;93.00
73955;DHT22;62306;52.516;13.290;2022-12-07T19:08:15;2.30;93.30
73955;DHT22;62306;52.516;13.290;2022-12-07T19:10:42;2.30;93.00
73955;DHT22;62306;52.516;13.290;2022-12-07T19:13:10;2.30;93.00
73955;DHT22;62306;52.516;13.290;2022-12-07T19:15:39;2.20;93.20
73955;DHT22;62306;52.516;13.290;2022-12-07T19:18:06;2.20;93.40
73955;DHT22;62306;52.516;13.290;2022-12-07T19:20:33;2.20;93.50
73955;DHT22;62306;52.516;13.290;2022-12-07T19:23:00;2.20;93.50
73955;DHT22;62306;52.516;13.290;2022-12-07T19:25:27;2.20;93.50
73955;DHT22;62306;52.516;13.290;2022-12-07T19:27:54;2.20;93.70
73955;DHT22;62306;52.516;13.290;2022-12-07T19:30:22;2.20;93.70
73955;DHT22;62306;52.516;13.290;2022-12-07T19:32:49;2.20;93.70
73955;DHT22;62306;52.516;13.290;2022-12-07T19:35:16;2.30;93.30
73955;DHT22;62306;52.516;13.290;2022-12-07T19:37:43;2.30;93.50
73955;DHT22;62306;52.516;13.290;2022-12-07T19:40:10;2.20;93.60
73955;DHT22;62306;52.516;13.290;2022-12-07T19:42:37;2.20;93.90
73955;DHT22;62306;52.516;13.290;2022-12-07T19:45:05;2.20;94.00
73955;DHT22;62306;52.516;13.290;2022-12-07T19:47:33;2.20;94.10
73955;DHT22;62306;52.516;13.290;2022-12-07T19:50:00;2.20;94.10
73955;DHT22;62306;52.516;13.290;2022-12-07T19:52:27;2.10;94.30
73955;DHT22;62306;52.516;13.290;2022-12-07T19:54:54;2.10;94.40
73955;DHT22;62306;52.516;13.290;2022-12-07T19:57:21;2.10;94.60
73955;DHT22;62306;52.516;13.290;2022-12-07T19:59:48;2.10;94.50
73955;DHT22;62306;52.516;13.290;2022-12-07T20:02:15;2.10;94.60
73955;DHT22;62306;52.516;13.290;2022-12-07T20:04:43;2.10;94.80
73955;DHT22;62306;52.516;13.290;2022-12-07T20:07:12;2.10;94.70
73955;DHT22;62306;52.516;13.290;2022-12-07T20:09:39;2.10;94.70
73955;DHT22;62306;52.516;13.290;2022-12-07T20:12:08;2.10;94.70
73955;DHT22;62306;52.516;13.290;2022-12-07T20:14:53;2.00;94.60
73955;DHT22;62306;52.516;13.290;2022-12-07T20:17:20;2.00;94.80
73955;DHT22;62306;52.516;13.290;2022-12-07T20:19:55;1.90;95.10
73955;DHT22;62306;52.516;13.290;2022-12-07T20:22:24;1.90;95.20
73955;DHT22;62306;52.516;13.290;2022-12-07T20:24:53;1.90;95.20
73955;DHT22;62306;52.516;13.290;2022-12-07T20:27:24;2.00;95.00
73955;DHT22;62306;52.516;13.290;2022-12-07T20:29:51;1.90;95.10
73955;DHT22;62306;52.516;13.290;2022-12-07T20:32:18;1.90;95.10
73955;DHT22;62306;52.516;13.290;2022-12-07T20:34:45;1.90;95.20
73955;DHT22;62306;52.516;13.290;2022-12-07T20:37:14;1.90;95.30
73955;DHT22;62306;52.516;13.290;2022-12-07T20:39:42;1.90;95.20
73955;DHT22;62306;52.516;13.290;2022-12-07T20:42:10;2.00;95.00
73955;DHT22;62306;52.516;13.290;2022-12-07T20:44:55;1.90;95.20
73955;DHT22;62306;52.516;13.290;2022-12-07T20:47:23;2.00;95.00
73955;DHT22;62306;52.516;13.290;2022-12-07T20:49:52;1.90;95.20
73955;DHT22;62306;52.516;13.290;2022-12-07T20:52:21;1.90;95.20
73955;DHT22;62306;52.516;13.290;2022-12-07T20:54:48;1.90;95.20
73955;DHT22;62306;52.516;13.290;2022-12-07T20:57:19;1.90;95.20
73955;DHT22;62306;52.516;13.290;2022-12-07T20:59:46;1.90;95.10
73955;DHT22;62306;52.516;13.290;2022-12-07T21:02:15;1.90;95.20
73955;DHT22;62306;52.516;13.290;2022-12-07T21:04:43;1.80;95.30
73955;DHT22;62306;52.516;13.290;2022-12-07T21:07:10;1.90;95.50
73955;DHT22;62306;52.516;13.290;2022-12-07T21:09:39;1.90;95.30
73955;DHT22;62306;52.516;13.290;2022-12-07T21:12:07;1.90;95.10
73955;DHT22;62306;52.516;13.290;2022-12-07T21:14:38;1.90;95.00
73955;DHT22;62306;52.516;13.290;2022-12-07T21:17:05;1.90;95.20
73955;DHT22;62306;52.516;13.290;2022-12-07T21:19:32;1.90;95.20
73955;DHT22;62306;52.516;13.290;2022-12-07T21:21:59;1.90;95.10
73955;DHT22;62306;52.516;13.290;2022-12-07T21:24:26;1.90;95.10
73955;DHT22;62306;52.516;13.290;2022-12-07T21:26:54;1.90;95.10
73955;DHT22;62306;52.516;13.290;2022-12-07T21:29:21;1.80;95.10
73955;DHT22;62306;52.516;13.290;2022-12-07T21:31:48;1.80;95.20
73955;DHT22;62306;52.516;13.290;2022-12-07T21:34:15;1.80;95.20
73955;DHT22;62306;52.516;13.290;2022-12-07T21:36:42;1.80;95.40
73955;DHT22;62306;52.516;13.290;2022-12-07T21:39:09;1.80;95.40
73955;DHT22;62306;52.516;13.290;2022-12-07T21:41:36;1.80;95.30
73955;DHT22;62306;52.516;13.290;2022-12-07T21:44:06;1.70;95.30
73955;DHT22;62306;52.516;13.290;2022-12-07T21:46:35;1.70;95.50
73955;DHT22;62306;52.516;13.290;2022-12-07T21:49:04;1.70;95.60
73955;DHT22;62306;52.516;13.290;2022-12-07T21:51:32;1.70;95.50
73955;DHT22;62306;52.516;13.290;2022-12-07T21:54:00;1.60;95.50
73955;DHT22;62306;52.516;13.290;2022-12-07T21:56:29;1.60;95.60
73955;DHT22;62306;52.516;13.290;2022-12-07T21:58:59;1.60;95.70
73955;DHT22;62306;52.516;13.290;2022-12-07T22:01:29;1.60;95.70
73955;DHT22;62306;52.516;13.290;2022-12-07T22:04:00;1.70;95.70
73955;DHT22;62306;52.516;13.290;2022-12-07T22:06:27;1.60;95.60
73955;DHT22;62306;52.516;13.290;2022-12-07T22:08:55;1.70;95.50
73955;DHT22;62306;52.516;13.290;2022-12-07T22:11:22;1.60;95.70
73955;DHT22;62306;52.516;13.290;2022-12-07T22:13:49;1.60;95.70
73955;DHT22;62306;52.516;13.290;2022-12-07T22:16:34;1.60;95.80
73955;DHT22;62306;52.516;13.290;2022-12-07T22:19:01;1.60;95.80
73955;DHT22;62306;52.516;13.290;2022-12-07T22:21:28;1.60;95.80
73955;DHT22;62306;52.516;13.290;2022-12-07T22:23:56;1.60;95.70
73955;DHT22;62306;52.516;13.290;2022-12-07T22:26:23;1.60;95.80
73955;DHT22;62306;52.516;13.290;2022-12-07T22:28:50;1.70;95.80